Flight Track Log - Related Links

Times and Time Zones

All times are in EDT time to prevent confusion due to time zone crossing. See the AAL2345 flight status page for this flight to view local times or setup timezone preferences in your user account.

Time Position Orientation Groundspeed Altitude Reporting Facility
EDT Latitude Longitude Course Direction KTS MPH feet Rate Location/Type
Sat 06:39:58 PM 41.9167 -87.9167 194° South 190 219 2,200  Level Chicago TRACON
Sat 06:40:58 PM 41.8667 -87.9167 180° South 213 245 4,300 1,963 Climbing Chicago TRACON
Sat 06:41:45 PM 41.8192 -87.9383 199° South 241 277 5,700 2,477 Climbing Chicago Center
Sat 06:42:00 PM 41.7547 -88.1752 201° Southwest  Level Estimated
Sat 06:42:47 PM 41.7533 -87.9792 205° Southwest 260 299 8,800  Level Chicago Center
Sat 06:43:00 PM 41.6789 -88.2643 197° South  Level Estimated
Sat 06:43:48 PM 41.6839 -88.0181 203° Southwest 272 313 11,100  Level Chicago Center
Sat 06:44:00 PM 41.5837 -88.2198 161° South  Level FlightAware Approximate
Sat 06:44:50 PM 41.6092 -88.0606 203° Southwest 290 334 13,700  Level Chicago Center
Sat 06:45:00 PM 41.5043 -88.3142 194° South  Level Estimated
Sat 06:45:51 PM 41.5167 -88.1158 204° Southwest 312 359 15,600  Level Chicago Center
Sat 06:46:53 PM 41.4286 -88.1661 203° Southwest 354 407 17,300 1,790 Climbing Chicago Center
Sat 06:47:55 PM 41.3342 -88.2131 200° South 371 427 19,300 1,805 Climbing Chicago Center
Sat 06:48:56 PM 41.2331 -88.2583 199° South 385 443 21,000 1,902 Climbing Chicago Center
Sat 06:49:58 PM 41.1086 -88.3150 199° South 396 456 23,200 1,854 Climbing Chicago Center
Sat 06:50:59 PM 41.0025 -88.3628 199° South 403 464 24,800 1,415 Climbing Chicago Center
Sat 06:52:01 PM 40.9164 -88.4528 218° Southwest 399 459 26,100 1,306 Climbing Chicago Center
Sat 06:53:03 PM 40.8303 -88.5525 221° Southwest 409 471 27,500 1,220 Climbing Chicago Center
Sat 06:54:04 PM 40.7419 -88.6508 220° Southwest 416 479 28,600 1,122 Climbing Chicago Center
Sat 06:55:06 PM 40.6511 -88.7494 219° Southwest 424 488 29,800 677 Climbing Chicago Center
Sat 06:56:08 PM 40.5525 -88.8575 220° Southwest 429 494 30,000 98 Climbing Chicago Center
Sat 06:57:09 PM 40.4603 -88.9581 220° Southwest 430 495 30,000  Level Chicago Center
Sat 06:58:11 PM 40.3669 -89.0578 219° Southwest 430 495 30,000  Level Chicago Center
Sat 06:59:15 PM 40.2553 -89.1775 219° Southwest 431 496 30,000  Level Chicago Center
Sat 07:00:17 PM 40.1631 -89.2786 220° Southwest 432 497 30,000  Level Chicago Center
Sat 07:01:07 PM 40.0878 -89.3575 219° Southwest 428 493 30,000  Level Kansas City Center
Sat 07:02:20 PM 39.9764 -89.4775 220° Southwest 434 499 30,000  Level Chicago Center
Sat 07:03:07 PM 39.9006 -89.5564 219° Southwest 432 497 30,000  Level Kansas City Center
Sat 07:04:11 PM 39.8078 -89.6558 219° Southwest 431 496 30,000  Level Kansas City Center
Sat 07:05:11 PM 39.7069 -89.7622 219° Southwest 432 497 30,000  Level Kansas City Center
Sat 07:06:12 PM 39.6142 -89.8600 219° Southwest 432 497 30,000  Level Kansas City Center
Sat 07:07:14 PM 39.5206 -89.9592 219° Southwest 435 501 30,000  Level Kansas City Center
Sat 07:08:15 PM 39.4283 -90.0556 219° Southwest 430 495 30,000  Level Kansas City Center
Sat 07:09:16 PM 39.3358 -90.1525 219° Southwest 430 495 30,000  Level Kansas City Center
Sat 07:10:17 PM 39.2433 -90.2492 219° Southwest 431 496 30,000  Level Kansas City Center
Sat 07:11:19 PM 39.1500 -90.3467 219° Southwest 433 498 30,000  Level Kansas City Center
Sat 07:12:21 PM 39.0575 -90.4428 219° Southwest 432 497 30,000  Level Kansas City Center
Sat 07:13:21 PM 38.9461 -90.5581 219° Southwest 433 498 30,000 -99 Level Kansas City Center
Sat 07:14:22 PM 38.8500 -90.6564 219° Southwest 429 494 29,800 -532 Descending Kansas City Center
Sat 07:15:25 PM 38.7606 -90.7464 218° Southwest 434 499 28,900 -878 Descending Kansas City Center
Sat 07:16:25 PM 38.6669 -90.8408 218° Southwest 435 501 28,000 -446 Descending Kansas City Center
Sat 07:17:26 PM 38.5725 -90.9367 218° Southwest 435 501 28,000  Level Kansas City Center
Sat 07:18:28 PM 38.4781 -91.0314 218° Southwest 435 501 28,000  Level Kansas City Center
Sat 07:19:28 PM 38.3636 -91.1461 218° Southwest 437 503 28,000  Level Kansas City Center
Sat 07:20:32 PM 38.2669 -91.2419 218° Southwest 440 506 28,000  Level Kansas City Center
Sat 07:21:34 PM 38.1708 -91.3383 218° Southwest 442 509 28,000  Level Kansas City Center
Sat 07:22:34 PM 38.0808 -91.4272 218° Southwest 442 509 28,000  Level Kansas City Center
Sat 07:23:35 PM 37.9875 -91.5300 221° Southwest 442 509 28,000  Level Kansas City Center
Sat 07:24:35 PM 37.8953 -91.6344 222° Southwest 441 507 28,000  Level Kansas City Center
Sat 07:25:38 PM 37.8031 -91.7367 221° Southwest 438 504 28,000  Level Kansas City Center
Sat 07:26:39 PM 37.6903 -91.8597 221° Southwest 440 506 28,000  Level Kansas City Center
Sat 07:27:40 PM 37.5961 -91.9628 221° Southwest 442 509 28,000  Level Kansas City Center
Sat 07:28:40 PM 37.5019 -92.0656 221° Southwest 443 510 28,000  Level Kansas City Center
Sat 07:29:42 PM 37.4072 -92.1672 220° Southwest 443 510 28,000  Level Kansas City Center
Sat 07:30:43 PM 37.3131 -92.2706 221° Southwest 445 512 28,000  Level Kansas City Center
Sat 07:31:46 PM 37.2197 -92.3706 220° Southwest 440 506 28,000  Level Kansas City Center
Sat 07:32:46 PM 37.1264 -92.4703 220° Southwest 438 504 28,000  Level Kansas City Center
Sat 07:33:47 PM 37.0342 -92.5683 220° Southwest 435 501 28,000  Level Kansas City Center
Sat 07:34:50 PM 36.9431 -92.6644 220° Southwest 430 495 28,000  Level Kansas City Center
Sat 07:35:51 PM 36.8525 -92.7597 220° Southwest 426 490 28,000  Level Kansas City Center
Sat 07:36:51 PM 36.7617 -92.8553 220° Southwest 425 489 28,000  Level Kansas City Center
Sat 07:37:51 PM 36.6689 -92.9511 220° Southwest 428 493 28,000  Level Kansas City Center
Sat 07:38:53 PM 36.5761 -93.0497 220° Southwest 429 494 28,000  Level Kansas City Center
Sat 07:39:54 PM 36.4844 -93.1458 220° Southwest 431 496 28,000  Level Kansas City Center
Sat 07:40:55 PM 36.3908 -93.2444 220° Southwest 437 503 28,000  Level Kansas City Center
Sat 07:41:20 PM 36.3367 -93.3017 220° Southwest 439 505 28,000  Level Memphis Center
Sat 07:42:20 PM 36.2425 -93.3986 220° Southwest 439 505 28,000  Level Memphis Center
Sat 07:43:20 PM 36.1506 -93.4956 220° Southwest 439 505 28,000  Level Memphis Center
Sat 07:44:20 PM 36.0583 -93.5919 220° Southwest 439 505 28,000  Level Memphis Center
Sat 07:45:20 PM 35.9642 -93.6883 220° Southwest 439 505 28,000  Level Memphis Center
Sat 07:46:20 PM 35.8719 -93.7819 219° Southwest 439 505 28,000  Level Memphis Center
Sat 07:47:20 PM 35.7775 -93.8778 219° Southwest 439 505 28,000  Level Memphis Center
Sat 07:48:20 PM 35.6850 -93.9711 219° Southwest 439 505 28,000  Level Memphis Center
Sat 07:49:20 PM 35.5906 -94.0664 219° Southwest 439 505 28,000  Level Memphis Center
Sat 07:50:20 PM 35.5003 -94.1594 220° Southwest 439 505 28,000  Level Memphis Center
Sat 07:51:20 PM 35.4033 -94.2544 219° Southwest 439 505 28,000  Level Memphis Center
Sat 07:52:20 PM 35.3128 -94.3494 221° Southwest 439 505 28,000  Level Memphis Center
Sat 07:54:40 PM 35.1175 -94.5683 223° Southwest 434 499 28,000  Level Fort Worth Center
Sat 07:55:40 PM 35.0278 -94.6650 221° Southwest 434 499 28,000  Level Fort Worth Center
Sat 07:56:40 PM 34.9300 -94.7697 221° Southwest 434 499 28,000  Level Fort Worth Center
Sat 07:57:40 PM 34.8483 -94.8606 222° Southwest 439 505 28,000  Level Fort Worth Center
Sat 07:58:40 PM 34.7606 -94.9567 222° Southwest 444 511 28,000 -350 Level Fort Worth Center
Sat 07:59:40 PM 34.6706 -95.0503 221° Southwest 438 504 27,300 -1,650 Descending Fort Worth Center
Sat 08:00:40 PM 34.5806 -95.1461 221° Southwest 431 496 24,700 -1,650 Descending Fort Worth Center
Sat 08:01:40 PM 34.4903 -95.2342 219° Southwest 425 489 24,000 -350 Descending Fort Worth Center
Sat 08:02:40 PM 34.4064 -95.3192 220° Southwest 425 489 24,000  Level Fort Worth Center
Sat 08:03:40 PM 34.3181 -95.4119 221° Southwest 420 483 24,000  Level Fort Worth Center
Sat 08:04:40 PM 34.2317 -95.4969 219° Southwest 420 483 24,000  Level Fort Worth Center
Sat 08:05:40 PM 34.1308 -95.5919 218° Southwest 414 476 24,000  Level Fort Worth Center
Sat 08:06:40 PM 34.0569 -95.6686 221° Southwest 414 476 24,000  Level Fort Worth Center
Sat 08:07:40 PM 33.9683 -95.7556 219° Southwest 414 476 24,000 -800 Level Fort Worth Center
Sat 08:08:40 PM 33.8797 -95.8447 220° Southwest 414 476 22,400 -2,100 Descending Fort Worth Center
Sat 08:09:40 PM 33.7850 -95.9364 219° Southwest 409 471 19,800 -2,700 Descending Fort Worth Center
Sat 08:10:40 PM 33.7064 -96.0153 220° Southwest 394 453 17,000 -2,500 Descending Fort Worth Center
Sat 08:11:40 PM 33.6281 -96.0939 220° Southwest 387 445 14,800 -2,350 Descending Fort Worth Center
Sat 08:12:40 PM 33.5517 -96.1672 219° Southwest 369 425 12,300 -1,900 Descending Fort Worth Center
Sat 08:13:40 PM 33.4750 -96.2406 219° Southwest 361 415 11,000 -650 Descending Fort Worth Center
Sat 08:14:40 PM 33.4172 -96.3011 221° Southwest 308 354 11,000  Level Fort Worth Center
Sat 08:15:40 PM 33.3636 -96.3739 229° Southwest 287 330 11,000 -450 Level Fort Worth Center
Sat 08:16:40 PM 33.3267 -96.4539 241° Southwest 287 330 10,100 -1,091 Descending Fort Worth Center
Sat 08:17:41 PM 33.2958 -96.5386 246° West 280 322 8,800 -1,550 Descending Fort Worth Center
Sat 08:18:40 PM 33.2733 -96.6208 252° West 274 315 7,000 -1,815 Descending Fort Worth Center
Sat 08:19:40 PM 33.2447 -96.7056 248° West 274 315 5,200 -1,000 Descending Fort Worth Center
Sat 08:20:40 PM 33.1992 -96.7756 232° Southwest 267 307 5,000 -100 Descending Fort Worth Center
Sat 08:21:40 PM 33.1536 -96.8478 233° Southwest 272 313 5,000 -750 Level Fort Worth Center
Sat 08:22:32 PM 33.1167 -96.9000 230° Southwest 268 308 3,600 -1,615 Descending Dallas / Fort Worth TRACON

Login

Don't have an account? Register now (free) for customized features, flight alerts, and more!